Time;durP1;ratioP1;P1;durP2;ratioP2;P2;SDS_P1;SDS_P2;PMS_P1;PMS_P2;Temp;Humidity;BMP_temperature;BMP_pressure;BME280_temperature;BME280_humidity;BME280_pressure;Samples;Min_cycle;Max_cycle;Signal;HPM_P1;HPM_P2
2022/04/08 00:02:07;;;;;;;23.23;4.85;;;;;;;7.46;60.62;99721.50;5197334;28;20436;-40
2022/04/08 00:04:41;;;;;;;15.70;4.68;;;;;;;7.42;60.88;99722.81;5191518;28;20427;-42
2022/04/08 00:07:13;;;;;;;19.83;5.00;;;;;;;6.93;60.65;99653.28;5189039;28;20569;-40
2022/04/08 00:09:46;;;;;;;15.90;4.13;;;;;;;7.34;60.87;99727.03;5190187;28;20780;-42
2022/04/08 00:12:18;;;;;;;16.42;4.70;;;;;;;7.30;60.88;99725.69;5186353;28;20510;-42
2022/04/08 00:14:51;;;;;;;26.45;4.80;;;;;;;7.27;60.65;99722.56;5189737;28;20507;-40
2022/04/08 00:17:23;;;;;;;18.48;4.38;;;;;;;7.22;60.81;99724.84;5189800;28;20421;-41
2022/04/08 00:19:57;;;;;;;19.90;5.13;;;;;;;7.19;60.74;99727.78;5192618;28;20502;-41
2022/04/08 00:22:29;;;;;;;22.23;4.70;;;;;;;7.17;60.96;99730.53;5188632;28;20976;-38
2022/04/08 00:25:02;;;;;;;22.58;5.82;;;;;;;7.13;60.82;99734.47;5188169;28;20460;-42
2022/04/08 00:27:34;;;;;;;21.45;4.75;;;;;;;7.14;60.75;99739.53;5189020;28;20649;-42
2022/04/08 00:30:08;;;;;;;20.50;5.73;;;;;;;7.15;60.90;99743.00;5192272;28;20984;-41
2022/04/08 00:32:40;;;;;;;21.60;5.78;;;;;;;7.17;60.98;99741.03;5188780;28;20512;-41
2022/04/08 00:35:15;;;;;;;21.42;6.38;;;;;;;7.20;60.95;99739.91;5187335;28;20423;-41
2022/04/08 00:37:49;;;;;;;26.13;6.38;;;;;;;7.21;60.76;99747.63;5199003;28;20873;-41
2022/04/08 00:40:21;;;;;;;18.40;5.25;;;;;;;7.23;60.51;99753.56;5191912;28;20418;-41
2022/04/08 00:42:54;;;;;;;22.13;5.20;;;;;;;7.13;60.85;99739.72;5203921;28;20778;-41
2022/04/08 00:45:26;;;;;;;21.13;5.35;;;;;;;7.24;60.97;99773.56;5193258;28;20924;-41
2022/04/08 00:48:06;;;;;;;23.60;5.18;;;;;;;7.26;60.94;99770.81;5196611;28;20419;-41
2022/04/08 00:50:42;;;;;;;19.48;5.43;;;;;;;7.19;60.72;99759.28;5194192;28;20881;-41
2022/04/08 00:53:14;;;;;;;25.40;5.60;;;;;;;7.20;60.75;99772.25;5195913;28;20789;-40
2022/04/08 00:55:47;;;;;;;21.33;6.05;;;;;;;7.16;60.82;99778.78;5197417;28;20844;-41
2022/04/08 00:58:19;;;;;;;22.95;5.53;;;;;;;7.10;60.83;99777.59;5196299;28;20526;-45
2022/04/08 01:00:52;;;;;;;26.57;6.20;;;;;;;7.02;60.74;99768.84;5197569;28;20487;-41
2022/04/08 01:03:24;;;;;;;25.35;5.07;;;;;;;7.07;60.55;99782.34;5194551;28;20498;-46
2022/04/08 01:05:58;;;;;;;18.27;4.97;;;;;;;6.93;60.62;99771.38;5198051;28;20484;-41
2022/04/08 01:08:34;;;;;;;18.58;5.78;;;;;;;7.02;60.52;99795.09;5185174;28;20823;-41
2022/04/08 01:11:06;;;;;;;27.17;5.07;;;;;;;7.01;60.85;99790.81;5198782;28;20484;-40
2022/04/08 01:13:39;;;;;;;23.80;6.05;;;;;;;7.00;60.64;99797.88;5198748;28;20513;-40
2022/04/08 01:16:11;;;;;;;20.00;4.72;;;;;;;7.00;60.72;99799.66;5200406;28;20421;-40
2022/04/08 01:18:44;;;;;;;18.30;4.95;;;;;;;7.01;60.72;99796.06;5200761;28;20480;-41
2022/04/08 01:21:18;;;;;;;20.65;4.97;;;;;;;7.02;60.51;99806.41;5199379;28;20524;-41
2022/04/08 01:23:53;;;;;;;20.85;5.22;;;;;;;7.03;60.53;99801.97;5201310;28;20807;-41
2022/04/08 01:26:27;;;;;;;24.73;4.57;;;;;;;7.04;60.51;99803.66;5198942;28;21081;-42
2022/04/08 01:28:59;;;;;;;18.63;4.93;;;;;;;7.03;60.57;99801.97;5200764;28;20414;-40
2022/04/08 01:31:32;;;;;;;16.23;4.37;;;;;;;7.02;60.24;99805.59;5197172;28;20508;-41
2022/04/08 01:34:04;;;;;;;11.45;3.85;;;;;;;7.01;60.58;99815.28;5200928;28;20409;-41
2022/04/08 01:36:37;;;;;;;17.35;4.07;;;;;;;7.00;60.49;99812.78;5192829;28;20450;-43
2022/04/08 01:39:09;;;;;;;17.27;3.97;;;;;;;7.00;60.21;99813.63;5199125;28;20520;-40
2022/04/08 01:41:43;;;;;;;11.50;3.90;;;;;;;7.01;60.42;99824.94;5200946;28;20798;-40
2022/04/08 01:44:15;;;;;;;15.43;4.50;;;;;;;7.00;60.30;99818.03;5195141;28;20464;-44
2022/04/08 01:46:48;;;;;;;25.73;4.25;;;;;;;6.99;60.30;99811.16;5200181;28;20508;-41
2022/04/08 01:49:20;;;;;;;11.35;3.22;;;;;;;6.97;60.04;99818.34;5192860;28;20420;-41
2022/04/08 01:51:53;;;;;;;11.05;4.38;;;;;;;6.84;60.17;99798.53;5186267;28;20462;-41
2022/04/08 01:54:25;;;;;;;17.15;4.45;;;;;;;6.91;60.07;99819.78;5193871;28;20426;-46
2022/04/08 01:56:59;;;;;;;23.95;4.75;;;;;;;6.89;60.17;99819.09;5190797;28;20415;-39
2022/04/08 01:59:31;;;;;;;18.95;4.10;;;;;;;6.81;59.99;99819.84;5179115;28;20481;-40
2022/04/08 02:02:05;;;;;;;18.70;5.05;;;;;;;6.76;60.11;99816.88;5190215;28;20415;-40
2022/04/08 02:04:37;;;;;;;12.45;5.03;;;;;;;6.74;60.03;99816.19;5192113;28;20432;-40
2022/04/08 02:07:09;;;;;;;19.05;4.72;;;;;;;6.81;59.97;99830.34;5196604;28;20437;-40
2022/04/08 02:09:42;;;;;;;16.08;4.28;;;;;;;6.78;59.88;99835.91;5189065;28;20415;-44
2022/04/08 02:12:16;;;;;;;23.50;5.05;;;;;;;6.59;60.12;99820.28;5189261;28;20433;-40
2022/04/08 02:14:48;;;;;;;29.23;5.15;;;;;;;6.77;59.67;99849.19;5191619;28;20461;-41
2022/04/08 02:17:21;;;;;;;13.90;4.57;;;;;;;6.77;59.93;99844.75;5189788;28;20508;-43
2022/04/08 02:19:53;;;;;;;20.05;4.88;;;;;;;6.83;59.99;99849.41;5191740;28;20990;-40
2022/04/08 02:22:29;;;;;;;17.30;4.95;;;;;;;6.86;59.72;99835.97;5191729;28;20423;-41
2022/04/08 02:25:01;;;;;;;22.05;4.43;;;;;;;6.90;59.82;99847.81;5186825;28;21002;-41
2022/04/08 02:27:35;;;;;;;12.82;4.45;;;;;;;6.99;59.73;99855.78;5193132;28;20445;-41
2022/04/08 02:30:12;;;;;;;23.73;5.25;;;;;;;7.03;59.58;99857.97;5194708;28;20496;-40
2022/04/08 02:32:44;;;;;;;17.52;4.60;;;;;;;7.03;59.91;99849.22;5191631;28;20515;-40
2022/04/08 02:35:17;;;;;;;18.65;4.90;;;;;;;7.03;59.81;99850.09;5191851;28;20471;-40
2022/04/08 02:37:51;;;;;;;22.83;5.65;;;;;;;7.09;59.75;99846.00;5198403;28;20953;-40
2022/04/08 02:40:24;;;;;;;16.75;4.53;;;;;;;7.10;59.79;99863.44;5188232;28;20522;-40
2022/04/08 02:42:58;;;;;;;24.13;4.80;;;;;;;7.09;59.99;99856.50;5192678;28;20490;-39
2022/04/08 02:45:30;;;;;;;17.77;4.80;;;;;;;7.10;59.94;99863.44;5186594;28;20506;-42
2022/04/08 02:48:03;;;;;;;21.92;4.53;;;;;;;7.11;59.70;99862.44;5191196;28;20552;-41
2022/04/08 02:50:36;;;;;;;15.88;3.80;;;;;;;7.10;59.90;99855.56;5190966;28;20510;-41
2022/04/08 02:53:08;;;;;;;10.57;3.63;;;;;;;7.08;59.96;99862.75;5190321;28;20575;-41
2022/04/08 02:55:41;;;;;;;14.05;4.05;;;;;;;7.10;59.82;99851.13;5189086;28;20425;-41
2022/04/08 02:58:14;;;;;;;14.02;4.03;;;;;;;7.11;59.69;99863.25;5190278;28;20915;-42
2022/04/08 03:00:47;;;;;;;11.13;3.33;;;;;;;7.14;59.90;99870.00;5196880;28;20520;-40
2022/04/08 03:03:19;;;;;;;12.17;3.17;;;;;;;7.12;59.85;99853.56;5191041;28;20475;-41
2022/04/08 03:05:51;;;;;;;17.33;4.82;;;;;;;7.12;59.98;99859.69;5189225;28;20524;-39
2022/04/08 03:08:24;;;;;;;14.35;4.47;;;;;;;7.12;59.99;99869.34;5189855;28;20411;-40
2022/04/08 03:10:57;;;;;;;20.98;4.05;;;;;;;7.11;59.86;99857.19;5187318;28;20443;-39
2022/04/08 03:13:31;;;;;;;17.60;4.85;;;;;;;7.10;59.89;99858.19;5189507;28;20423;-41
2022/04/08 03:16:04;;;;;;;16.90;4.30;;;;;;;7.07;60.06;99861.91;5186971;28;20522;-42
2022/04/08 03:18:37;;;;;;;14.23;4.05;;;;;;;7.07;59.75;99856.66;5191328;28;20514;-40
2022/04/08 03:21:09;;;;;;;16.83;4.70;;;;;;;7.06;59.64;99869.94;5193470;28;20533;-40
2022/04/08 03:23:43;;;;;;;15.23;4.68;;;;;;;7.02;59.79;99871.22;5189950;28;20423;-40
2022/04/08 03:26:15;;;;;;;12.23;4.63;;;;;;;7.00;59.92;99876.63;5187302;28;20859;-40
2022/04/08 03:28:49;;;;;;;18.07;4.70;;;;;;;7.00;60.00;99870.53;5168321;28;20427;-40
2022/04/08 03:31:22;;;;;;;15.07;4.25;;;;;;;6.98;59.98;99869.88;5176137;28;20415;-40
2022/04/08 03:33:55;;;;;;;17.60;4.32;;;;;;;6.99;60.03;99874.16;5190298;28;20421;-39
2022/04/08 03:36:27;;;;;;;16.10;4.60;;;;;;;6.97;59.84;99883.97;5190427;28;20413;-41
2022/04/08 03:39:00;;;;;;;14.13;4.60;;;;;;;6.92;59.96;99874.75;5187257;28;21832;-40
2022/04/08 03:41:32;;;;;;;20.17;4.90;;;;;;;6.93;60.03;99876.38;5185972;28;20427;-40
2022/04/08 03:44:06;;;;;;;11.88;3.90;;;;;;;6.82;59.85;99863.50;5189318;28;20563;-44
2022/04/08 03:46:38;;;;;;;13.35;4.80;;;;;;;6.92;60.05;99885.25;5186661;28;20512;-40
2022/04/08 03:49:14;;;;;;;14.45;4.80;;;;;;;6.87;59.96;99870.91;5190242;28;20786;-40
2022/04/08 03:51:47;;;;;;;17.92;4.43;;;;;;;6.91;60.07;99878.34;5189976;28;20426;-40
2022/04/08 03:54:20;;;;;;;18.57;4.37;;;;;;;6.90;59.95;99874.06;5188218;28;20427;-40
2022/04/08 03:56:52;;;;;;;11.85;4.45;;;;;;;6.90;60.05;99876.69;5189381;28;21090;-40
2022/04/08 03:59:26;;;;;;;12.65;3.78;;;;;;;6.81;60.05;99859.22;5189310;28;20439;-40
2022/04/08 04:02:01;;;;;;;18.92;4.15;;;;;;;6.88;60.08;99876.03;5186713;28;20425;-42
2022/04/08 04:04:35;;;;;;;13.65;4.57;;;;;;;6.73;59.97;99880.13;5188604;28;24565;-40
2022/04/08 04:07:08;;;;;;;20.63;5.50;;;;;;;6.85;59.97;99872.88;5189491;28;20470;-40
2022/04/08 04:09:40;;;;;;;16.27;4.93;;;;;;;6.84;59.91;99864.16;5187500;28;20969;-40
2022/04/08 04:12:13;;;;;;;18.13;5.72;;;;;;;6.60;60.08;99828.03;5186500;28;20930;-40
2022/04/08 04:14:47;;;;;;;20.88;4.72;;;;;;;6.80;60.09;99864.63;5179069;28;20476;-40
2022/04/08 04:17:19;;;;;;;13.60;4.35;;;;;;;6.64;60.31;99839.06;5182373;28;20428;-41
2022/04/08 04:19:52;;;;;;;19.83;4.07;;;;;;;6.75;60.04;99857.22;5180348;28;20411;-42
2022/04/08 04:22:24;;;;;;;20.85;5.60;;;;;;;6.77;60.23;99862.28;5187733;28;20423;-40
2022/04/08 04:24:56;;;;;;;19.33;5.30;;;;;;;6.76;60.22;99861.47;5190885;28;20451;-41
2022/04/08 04:27:29;;;;;;;17.67;4.87;;;;;;;6.70;60.20;99849.78;5194300;28;20427;-40
2022/04/08 04:30:03;;;;;;;12.45;3.40;;;;;;;6.73;60.02;99864.41;5167278;28;20417;-38
2022/04/08 04:32:35;;;;;;;18.13;4.70;;;;;;;6.73;60.28;99866.19;5196532;28;20415;-40
2022/04/08 04:35:09;;;;;;;21.80;5.07;;;;;;;6.73;60.45;99869.66;5199968;28;20516;-40
2022/04/08 04:37:41;;;;;;;19.92;4.80;;;;;;;6.68;60.27;99856.13;5199806;28;20480;-40
2022/04/08 04:40:14;;;;;;;15.88;4.30;;;;;;;6.71;60.38;99866.34;5184381;28;20825;-40
2022/04/08 04:42:46;;;;;;;18.60;5.25;;;;;;;6.69;60.41;99869.13;5184103;28;20443;-43
2022/04/08 04:45:20;;;;;;;23.17;5.07;;;;;;;6.68;60.48;99867.44;5160988;28;20436;-41
2022/04/08 04:47:53;;;;;;;21.85;4.65;;;;;;;6.68;60.36;99862.19;5195767;28;20463;-40
2022/04/08 04:50:25;;;;;;;18.65;4.68;;;;;;;6.69;60.29;99868.31;5199524;28;20861;-40
2022/04/08 04:52:58;;;;;;;19.77;5.28;;;;;;;6.67;60.31;99868.44;5199233;28;20510;-41
2022/04/08 04:55:30;;;;;;;19.58;5.28;;;;;;;6.69;60.41;99873.56;5185031;28;20488;-40
2022/04/08 04:58:03;;;;;;;25.17;5.20;;;;;;;6.70;60.25;99875.19;5191447;28;20759;-40
2022/04/08 05:00:37;;;;;;;23.05;4.85;;;;;;;6.67;60.56;99872.84;5183949;28;20490;-40
2022/04/08 05:03:11;;;;;;;21.83;5.82;;;;;;;6.68;60.56;99874.50;5190828;28;20569;-41
2022/04/08 05:05:43;;;;;;;24.27;6.03;;;;;;;6.68;60.65;99879.75;5195977;28;20420;-40
2022/04/08 05:08:17;;;;;;;23.10;5.25;;;;;;;6.54;60.39;99848.78;5191626;28;20419;-40
2022/04/08 05:10:49;;;;;;;24.05;5.07;;;;;;;6.72;60.70;99868.00;5192650;28;20431;-40
2022/04/08 05:13:21;;;;;;;19.13;5.10;;;;;;;6.77;60.67;99870.16;5191760;28;20452;-40
2022/04/08 05:15:55;;;;;;;19.70;4.93;;;;;;;6.62;60.64;99841.00;5200547;28;20494;-40
2022/04/08 05:18:27;;;;;;;18.75;4.18;;;;;;;6.84;60.77;99865.97;5183231;28;20445;-39
2022/04/08 05:21:00;;;;;;;22.13;5.00;;;;;;;6.83;60.65;99859.91;5193039;28;20812;-39
2022/04/08 05:23:33;;;;;;;22.02;5.00;;;;;;;6.84;60.68;99861.53;5188027;28;20917;-41
2022/04/08 05:26:06;;;;;;;23.40;6.65;;;;;;;6.91;60.56;99857.34;5190358;28;20437;-39
2022/04/08 05:28:38;;;;;;;24.33;5.32;;;;;;;6.95;60.72;99867.56;5181425;28;20913;-40
2022/04/08 05:31:12;;;;;;;27.45;7.10;;;;;;;6.99;60.67;99867.09;5194740;28;20510;-39
2022/04/08 05:33:44;;;;;;;28.10;5.55;;;;;;;7.04;60.49;99867.47;5196932;28;20477;-40
2022/04/08 05:36:17;;;;;;;23.40;4.90;;;;;;;7.11;60.63;99878.19;5192170;28;20498;-40
2022/04/08 05:38:50;;;;;;;19.17;4.53;;;;;;;7.16;60.49;99866.28;5192863;28;20487;-42
2022/04/08 05:41:22;;;;;;;16.80;5.03;;;;;;;7.22;60.53;99870.09;5209705;28;20493;-40
2022/04/08 05:43:55;;;;;;;24.02;5.43;;;;;;;7.24;60.70;99862.03;5200624;28;20510;-40
2022/04/08 05:46:29;;;;;;;19.83;4.82;;;;;;;7.28;60.67;99864.22;5202235;28;20401;-40
2022/04/08 05:49:01;;;;;;;19.33;5.38;;;;;;;7.27;60.61;99857.31;5205306;28;20425;-40
2022/04/08 05:51:34;;;;;;;25.90;5.53;;;;;;;7.34;60.55;99862.78;5211173;28;20416;-40
2022/04/08 05:54:06;;;;;;;22.63;5.05;;;;;;;7.49;60.47;99857.78;5209816;28;20538;-40
2022/04/08 05:56:39;;;;;;;20.73;4.93;;;;;;;7.58;60.33;99862.13;5204653;28;20419;-40
2022/04/08 05:59:11;;;;;;;14.73;4.60;;;;;;;7.65;60.38;99863.19;5207214;28;20917;-40
2022/04/08 06:01:45;;;;;;;15.15;5.07;;;;;;;7.71;60.25;99859.09;5206258;28;20424;-40
2022/04/08 06:04:17;;;;;;;12.90;4.47;;;;;;;7.77;60.22;99863.72;5209599;28;20405;-41
2022/04/08 06:06:50;;;;;;;22.87;4.93;;;;;;;7.83;60.32;99869.22;5201772;28;20514;-40
2022/04/08 06:09:23;;;;;;;15.90;3.88;;;;;;;7.93;60.04;99866.47;5190264;28;20419;-39
2022/04/08 06:11:55;;;;;;;15.68;5.25;;;;;;;8.05;60.05;99867.84;5190446;28;20479;-40
2022/04/08 06:14:28;;;;;;;13.23;4.40;;;;;;;8.16;59.91;99864.09;5202210;28;20837;-40
2022/04/08 06:17:02;;;;;;;16.45;4.75;;;;;;;8.45;59.78;99871.63;5200458;28;20947;-38
2022/04/08 06:19:34;;;;;;;18.83;5.43;;;;;;;8.96;59.41;99866.31;5195540;28;20415;-39
2022/04/08 06:22:07;;;;;;;20.40;4.45;;;;;;;9.98;58.66;99856.97;5190556;28;20419;-41
2022/04/08 06:24:40;;;;;;;14.80;5.15;;;;;;;11.19;57.63;99860.97;5206646;28;20963;-41
2022/04/08 06:27:12;;;;;;;17.80;4.90;;;;;;;12.22;56.67;99860.25;5208699;28;20417;-40
2022/04/08 06:29:45;;;;;;;16.65;4.55;;;;;;;13.04;55.85;99869.75;5198859;28;20706;-40
2022/04/08 06:32:19;;;;;;;16.00;4.25;;;;;;;13.66;55.14;99861.09;5190816;28;20414;-41
2022/04/08 06:34:51;;;;;;;18.17;4.22;;;;;;;14.34;54.55;99868.41;5189489;28;21026;-41
2022/04/08 06:37:29;;;;;;;13.63;3.80;;;;;;;14.88;53.89;99865.75;5190300;28;20819;-41
2022/04/08 06:40:04;;;;;;;16.80;4.05;;;;;;;15.50;52.99;99869.06;5204026;28;20784;-44
2022/04/08 06:42:38;;;;;;;17.47;3.77;;;;;;;15.82;52.48;99870.06;5210892;28;20417;-43
2022/04/08 06:45:11;;;;;;;17.13;4.28;;;;;;;15.79;52.04;99829.75;5211075;28;20413;-40
2022/04/08 06:47:49;;;;;;;19.52;3.78;;;;;;;15.88;52.21;99865.75;5209810;28;20413;-41
2022/04/08 06:50:21;;;;;;;16.52;4.05;;;;;;;16.41;51.38;99860.25;5202251;28;20411;-42
2022/04/08 06:52:59;;;;;;;13.30;4.15;;;;;;;17.48;50.29;99869.25;5192527;28;20484;-41
2022/04/08 06:55:32;;;;;;;10.52;2.97;;;;;;;18.62;48.90;99867.00;5187973;28;20427;-42
2022/04/08 06:58:05;;;;;;;17.90;3.63;;;;;;;19.11;48.07;99864.31;5190888;28;20459;-41
2022/04/08 07:00:39;;;;;;;16.48;3.67;;;;;;;19.50;47.57;99864.69;5209324;28;20466;-43
2022/04/08 07:03:12;;;;;;;14.27;3.58;;;;;;;20.03;46.94;99867.25;5191784;28;20419;-41
2022/04/08 07:05:45;;;;;;;15.68;3.55;;;;;;;20.28;46.51;99868.81;5203062;28;20450;-41
2022/04/08 07:08:18;;;;;;;12.30;2.95;;;;;;;20.65;45.89;99850.53;5211001;28;20548;-41
2022/04/08 07:10:50;;;;;;;12.03;2.60;;;;;;;20.78;45.46;99862.88;5211234;28;20413;-41
2022/04/08 07:13:22;;;;;;;14.25;2.30;;;;;;;20.11;45.68;99852.69;5208804;28;20876;-41
2022/04/08 07:15:55;;;;;;;16.67;3.17;;;;;;;19.27;46.03;99857.47;5207215;28;20426;-42
2022/04/08 07:18:29;;;;;;;14.55;3.03;;;;;;;18.43;46.64;99866.22;5197807;28;20880;-41
2022/04/08 07:21:01;;;;;;;11.43;3.43;;;;;;;17.68;47.06;99869.09;5194476;28;20491;-43
2022/04/08 07:23:35;;;;;;;10.13;2.20;;;;;;;16.87;47.40;99869.91;5192312;28;20513;-41
2022/04/08 07:26:07;;;;;;;18.35;3.47;;;;;;;16.15;47.93;99871.84;5193272;28;20817;-42
2022/04/08 07:28:40;;;;;;;17.48;3.63;;;;;;;15.80;48.19;99879.31;5192381;28;20434;-43
2022/04/08 07:31:12;;;;;;;13.02;3.15;;;;;;;16.25;47.80;99868.75;5195290;28;20423;-43
2022/04/08 07:33:46;;;;;;;9.75;3.40;;;;;;;16.39;47.26;99877.50;5192168;28;20450;-41
2022/04/08 07:36:18;;;;;;;15.80;3.05;;;;;;;16.42;47.14;99871.75;5193144;28;20454;-41
2022/04/08 07:38:51;;;;;;;10.27;3.03;;;;;;;17.13;46.19;99878.78;5198379;28;20418;-41
2022/04/08 07:41:23;;;;;;;17.67;2.92;;;;;;;16.88;46.34;99866.22;5201134;28;20693;-41
2022/04/08 07:43:56;;;;;;;10.73;3.00;;;;;;;16.35;46.26;99864.63;5198337;28;20508;-41
2022/04/08 07:46:29;;;;;;;12.45;3.40;;;;;;;16.09;46.71;99865.50;5199117;28;20863;-41
2022/04/08 07:49:02;;;;;;;8.57;2.40;;;;;;;16.10;46.48;99859.16;5193575;28;20407;-41
2022/04/08 07:51:35;;;;;;;11.35;3.33;;;;;;;15.97;46.32;99861.03;5194606;28;20428;-42
2022/04/08 07:54:07;;;;;;;8.97;2.97;;;;;;;16.95;45.81;99867.00;5198727;28;20509;-41
2022/04/08 07:56:40;;;;;;;10.80;2.73;;;;;;;18.27;44.63;99864.19;5189111;28;20502;-41
2022/04/08 07:59:12;;;;;;;10.45;2.70;;;;;;;19.17;43.52;99863.38;5194298;28;20920;-41
2022/04/08 08:01:46;;;;;;;9.90;2.50;;;;;;;19.32;43.33;99855.72;5191641;28;20475;-41
2022/04/08 08:04:19;;;;;;;11.02;3.00;;;;;;;18.97;43.70;99846.81;5191561;28;20777;-42
2022/04/08 08:06:52;;;;;;;13.77;2.83;;;;;;;18.57;43.90;99858.03;5195928;28;20972;-42
2022/04/08 08:09:24;;;;;;;12.27;2.50;;;;;;;17.81;44.47;99865.50;5192548;28;20427;-42
2022/04/08 08:11:57;;;;;;;11.67;2.07;;;;;;;17.20;45.05;99845.66;5189689;28;20553;-42
2022/04/08 08:14:29;;;;;;;14.47;2.50;;;;;;;17.47;45.12;99862.28;5191393;28;20540;-42
2022/04/08 08:17:02;;;;;;;9.53;2.43;;;;;;;17.84;44.46;99857.03;5184692;28;20426;-42
2022/04/08 08:19:36;;;;;;;10.30;2.17;;;;;;;18.15;44.15;99864.09;5195753;28;20476;-42
2022/04/08 08:22:09;;;;;;;9.93;2.28;;;;;;;18.47;43.85;99858.56;5168689;28;20859;-43
2022/04/08 08:24:41;;;;;;;10.02;2.22;;;;;;;18.84;43.79;99856.66;5167964;28;20521;-43
2022/04/08 08:27:14;;;;;;;11.25;2.53;;;;;;;19.08;43.61;99856.72;5170260;28;21007;-41
2022/04/08 08:29:46;;;;;;;10.05;2.17;;;;;;;18.77;43.63;99847.91;5162075;28;20785;-42
2022/04/08 08:32:18;;;;;;;8.82;2.03;;;;;;;18.28;44.18;99849.75;5179466;28;20498;-41
2022/04/08 08:34:52;;;;;;;8.27;1.95;;;;;;;17.76;44.24;99857.28;5197616;28;23770;-41
2022/04/08 08:37:24;;;;;;;7.80;2.17;;;;;;;17.60;44.53;99842.66;5186456;28;20446;-42
2022/04/08 08:39:57;;;;;;;11.70;2.53;;;;;;;17.97;44.42;99843.53;5173530;28;20423;-42
2022/04/08 08:42:30;;;;;;;9.88;2.75;;;;;;;18.40;44.07;99849.84;5196237;28;20928;-41
2022/04/08 08:45:03;;;;;;;7.65;2.53;;;;;;;18.12;44.21;99845.03;5195297;28;20738;-45
2022/04/08 08:47:36;;;;;;;7.18;2.20;;;;;;;17.67;44.62;99850.59;5187017;28;20770;-49
2022/04/08 08:50:11;;;;;;;10.52;2.42;;;;;;;17.21;44.68;99819.81;5184950;28;20483;-41
2022/04/08 08:52:44;;;;;;;8.30;2.55;;;;;;;17.11;44.75;99838.16;5188903;28;20902;-41
2022/04/08 08:55:17;;;;;;;12.25;2.28;;;;;;;16.94;44.92;99849.34;5166879;28;20998;-41
2022/04/08 08:57:52;;;;;;;10.48;2.60;;;;;;;16.83;45.10;99852.69;5185854;28;20964;-42
2022/04/08 09:00:25;;;;;;;7.60;2.28;;;;;;;16.72;45.08;99840.84;5186920;28;20535;-41
2022/04/08 09:02:57;;;;;;;18.27;3.47;;;;;;;16.57;45.05;99849.13;5186300;28;20463;-41
2022/04/08 09:05:39;;;;;;;13.50;2.78;;;;;;;16.36;44.99;99842.25;5193958;28;20743;-41
2022/04/08 09:08:13;;;;;;;9.70;2.58;;;;;;;16.15;45.14;99826.56;5189301;28;20829;-41
2022/04/08 09:10:48;;;;;;;13.45;2.67;;;;;;;16.10;45.14;99827.22;5167654;28;20449;-41
2022/04/08 09:13:23;;;;;;;11.00;2.53;;;;;;;15.99;45.11;99830.50;5172118;28;20466;-41
2022/04/08 09:15:57;;;;;;;12.90;3.60;;;;;;;15.88;44.93;99823.16;5178860;28;20992;-41
2022/04/08 09:18:37;;;;;;;17.42;3.10;;;;;;;15.88;44.87;99833.81;5177330;28;20406;-42
2022/04/08 09:21:21;;;;;;;13.25;2.80;;;;;;;15.80;44.94;99823.41;5185245;28;20479;-41
2022/04/08 09:23:54;;;;;;;17.17;3.90;;;;;;;15.78;44.87;99836.91;5180969;28;20546;-43
2022/04/08 09:26:36;;;;;;;16.10;3.58;;;;;;;15.78;44.91;99842.25;5183112;28;20429;-41
2022/04/08 09:29:08;;;;;;;11.73;2.58;;;;;;;15.74;44.83;99832.22;5184244;28;20902;-41
2022/04/08 09:31:41;;;;;;;14.02;3.05;;;;;;;15.74;44.66;99837.56;5194363;28;20896;-42
2022/04/08 09:34:16;;;;;;;12.82;2.58;;;;;;;15.68;44.72;99834.69;5161076;28;20803;-42
2022/04/08 09:36:50;;;;;;;16.25;2.85;;;;;;;15.57;44.63;99821.97;5187846;28;20427;-41
2022/04/08 09:39:22;;;;;;;11.98;2.35;;;;;;;15.53;44.45;99820.75;5200660;28;20458;-42
2022/04/08 09:42:03;;;;;;;12.65;2.80;;;;;;;15.50;44.50;99837.13;5184624;28;20488;-42
2022/04/08 09:44:41;;;;;;;17.10;4.03;;;;;;;15.37;44.36;99835.31;5193239;28;20493;-42
2022/04/08 09:47:14;;;;;;;14.60;4.18;;;;;;;15.23;44.60;99836.31;5193088;28;20553;-42
2022/04/08 09:49:46;;;;;;;12.57;3.38;;;;;;;15.01;44.60;99822.41;5188865;28;20601;-42
2022/04/08 09:52:21;;;;;;;14.53;3.80;;;;;;;14.93;44.55;99819.97;5169372;28;20870;-41
2022/04/08 09:54:56;;;;;;;16.80;3.67;;;;;;;14.68;44.84;99812.56;5165792;28;20469;-41
2022/04/08 09:57:37;;;;;;;12.20;3.22;;;;;;;14.48;45.06;99814.31;5152560;28;20859;-46
2022/04/08 10:00:10;;;;;;;19.38;3.65;;;;;;;14.49;44.86;99823.91;5186088;28;20447;-40
2022/04/08 10:02:45;;;;;;;10.38;2.80;;;;;;;14.50;44.95;99825.56;5173343;28;20911;-41
2022/04/08 10:05:18;;;;;;;14.18;3.40;;;;;;;14.47;45.07;99820.66;5174739;28;20474;-40
2022/04/08 10:07:55;;;;;;;12.02;3.47;;;;;;;14.39;44.88;99812.84;5182938;28;20490;-39
2022/04/08 10:10:34;;;;;;;19.48;4.30;;;;;;;14.47;44.91;99824.13;5200448;28;20408;-47
2022/04/08 10:13:41;;;;;;;16.48;4.18;;;;;;;14.44;44.81;99815.75;5184315;28;20491;-40
2022/04/08 10:16:17;;;;;;;14.65;4.10;;;;;;;14.41;44.92;99830.22;5190915;28;20964;-42
2022/04/08 10:18:52;;;;;;;16.35;4.38;;;;;;;14.46;44.84;99832.28;5189418;28;20937;-41
2022/04/08 10:21:24;;;;;;;15.13;4.40;;;;;;;14.58;44.72;99833.38;5187234;28;20471;-39
2022/04/08 10:23:58;;;;;;;16.10;4.05;;;;;;;14.70;44.64;99834.41;5193869;28;20829;-40
2022/04/08 10:26:31;;;;;;;13.33;3.97;;;;;;;14.88;44.41;99838.34;5188707;28;20439;-41
2022/04/08 10:29:11;;;;;;;14.40;3.00;;;;;;;15.02;44.17;99847.16;5184412;28;20411;-41
2022/04/08 10:31:54;;;;;;;17.98;3.30;;;;;;;15.10;44.06;99842.44;5186630;28;20764;-41
2022/04/08 10:34:28;;;;;;;16.00;3.53;;;;;;;14.83;44.13;99809.69;5198339;28;20832;-40
2022/04/08 10:37:02;;;;;;;12.00;2.72;;;;;;;14.86;43.97;99845.69;5189525;28;20454;-41
2022/04/08 10:39:36;;;;;;;11.02;2.60;;;;;;;14.92;43.86;99850.19;5188482;28;20869;-41
2022/04/08 10:42:20;;;;;;;17.27;3.70;;;;;;;14.79;44.06;99852.84;5195033;28;21044;-48
2022/04/08 10:44:52;;;;;;;9.75;3.00;;;;;;;14.62;44.12;99855.88;5188829;28;20971;-40
2022/04/08 10:47:27;;;;;;;13.20;3.30;;;;;;;14.51;44.39;99848.47;5189050;28;20855;-41
2022/04/08 10:50:04;;;;;;;10.48;3.03;;;;;;;13.90;44.53;99755.47;5196922;28;20950;-46
2022/04/08 10:53:12;;;;;;;13.47;2.93;;;;;;;14.46;44.56;99840.25;5192997;28;20525;-41
2022/04/08 10:55:51;;;;;;;7.93;2.85;;;;;;;14.55;44.56;99833.75;5188124;28;20423;-40
2022/04/08 10:58:32;;;;;;;9.82;2.92;;;;;;;14.57;44.30;99841.56;5189373;28;20485;-40
2022/04/08 11:01:16;;;;;;;10.95;3.25;;;;;;;14.55;44.37;99844.41;5190099;28;20455;-41
2022/04/08 11:03:58;;;;;;;10.30;2.53;;;;;;;14.46;44.53;99842.91;5182979;28;20405;-40
2022/04/08 11:06:34;;;;;;;17.42;3.55;;;;;;;14.49;44.61;99850.47;5192150;28;20414;-40
2022/04/08 11:09:08;;;;;;;11.77;3.67;;;;;;;14.48;44.60;99843.53;5189437;28;20448;-40
2022/04/08 11:11:43;;;;;;;10.07;2.92;;;;;;;14.37;44.54;99830.81;5192590;28;20417;-40
2022/04/08 11:14:16;;;;;;;12.55;2.50;;;;;;;14.26;44.59;99819.75;5190915;28;20437;-39
2022/04/08 11:16:50;;;;;;;11.40;2.80;;;;;;;14.25;44.65;99833.25;5179223;28;20451;-43
2022/04/08 11:19:53;;;;;;;8.00;2.63;;;;;;;14.11;44.87;99821.72;5176615;28;20408;-41
2022/04/08 11:22:25;;;;;;;12.88;3.40;;;;;;;13.99;44.99;99818.00;5187935;28;20407;-41
2022/04/08 11:24:58;;;;;;;6.07;2.03;;;;;;;14.08;44.96;99817.63;5187566;28;20513;-41
2022/04/08 11:27:34;;;;;;;11.10;3.58;;;;;;;14.19;44.78;99818.09;5189284;28;20421;-41
2022/04/08 11:30:10;;;;;;;8.55;2.70;;;;;;;14.21;44.64;99811.56;5192095;28;20843;-40
2022/04/08 11:32:43;;;;;;;13.60;2.90;;;;;;;14.33;44.75;99818.97;5189910;28;20478;-40
2022/04/08 11:35:16;;;;;;;9.32;2.85;;;;;;;14.44;44.49;99831.69;5189232;28;20451;-40
2022/04/08 11:37:48;;;;;;;7.05;2.28;;;;;;;14.41;44.66;99827.56;5163661;28;20472;-42
2022/04/08 11:40:21;;;;;;;8.70;2.92;;;;;;;14.57;44.47;99815.78;5192223;28;21021;-40
2022/04/08 11:42:59;;;;;;;9.20;2.45;;;;;;;14.70;44.36;99820.31;5189009;28;20835;-41
2022/04/08 11:45:32;;;;;;;11.80;3.40;;;;;;;14.80;44.30;99815.41;5187741;28;20903;-39
2022/04/08 11:48:07;;;;;;;8.63;2.42;;;;;;;14.83;44.21;99811.53;5189518;28;20974;-40
2022/04/08 11:50:40;;;;;;;15.15;2.72;;;;;;;14.79;44.22;99818.28;5189322;28;20775;-40
2022/04/08 11:53:17;;;;;;;11.38;2.70;;;;;;;14.80;44.07;99793.34;5189306;28;20439;-41
2022/04/08 11:55:57;;;;;;;11.90;2.55;;;;;;;14.93;44.01;99798.69;5186329;28;20426;-40
2022/04/08 11:58:31;;;;;;;10.07;2.53;;;;;;;14.88;43.81;99779.88;5186934;28;20420;-41
2022/04/08 12:01:05;;;;;;;7.55;2.22;;;;;;;14.95;43.97;99801.94;5186947;28;20943;-41